createdAt,value
2018-09-30T00:00:51.586Z,7.03
2018-09-30T00:03:19.795Z,4.37
2018-09-30T00:05:47.972Z,4.30
2018-09-30T00:09:45.405Z,4.97
2018-09-30T00:12:13.605Z,6.90
2018-09-30T00:14:41.810Z,7.00
2018-09-30T00:17:10.163Z,5.40
2018-09-30T00:19:38.618Z,5.77
2018-09-30T00:22:06.785Z,7.40
2018-09-30T00:24:40.306Z,6.73
2018-09-30T00:27:13.933Z,5.20
2018-09-30T00:29:42.122Z,6.00
2018-09-30T00:32:10.325Z,5.67
2018-09-30T00:34:38.543Z,6.37
2018-09-30T00:37:06.728Z,6.53
2018-09-30T00:39:34.945Z,6.07
2018-09-30T00:42:03.117Z,6.40
2018-09-30T00:44:31.296Z,4.07
2018-09-30T00:46:59.491Z,6.70
2018-09-30T00:49:27.672Z,5.80
2018-09-30T00:51:55.933Z,8.20
2018-09-30T00:54:24.138Z,4.93
2018-09-30T00:56:52.361Z,5.70
2018-09-30T00:59:20.579Z,6.43
2018-09-30T01:01:48.764Z,6.33
2018-09-30T01:04:16.965Z,4.30
2018-09-30T01:06:45.177Z,5.70
2018-09-30T01:09:14.669Z,5.40
2018-09-30T01:11:43.454Z,4.43
2018-09-30T01:14:11.654Z,6.07
2018-09-30T01:16:39.897Z,5.70
2018-09-30T01:19:08.129Z,5.33
2018-09-30T01:21:36.649Z,6.53
2018-09-30T01:24:05.073Z,5.10
2018-09-30T01:26:33.538Z,7.50
2018-09-30T01:29:01.774Z,7.03
2018-09-30T01:31:29.972Z,4.30
2018-09-30T01:33:58.373Z,5.27
2018-09-30T01:36:26.574Z,5.40
2018-09-30T01:38:54.762Z,8.10
2018-09-30T01:41:23.173Z,5.30
2018-09-30T01:43:51.377Z,6.83
2018-09-30T01:46:19.793Z,6.90
2018-09-30T01:48:47.982Z,6.03
2018-09-30T01:51:16.162Z,5.30
2018-09-30T01:53:44.338Z,5.63
2018-09-30T01:56:12.690Z,4.23
2018-09-30T01:58:40.887Z,5.57
2018-09-30T02:01:09.085Z,4.90
2018-09-30T02:03:37.292Z,5.93
2018-09-30T02:06:05.592Z,5.13
2018-09-30T02:08:34.046Z,4.30
2018-09-30T02:11:02.234Z,7.80
2018-09-30T02:13:30.421Z,4.93
2018-09-30T02:15:58.650Z,7.70
2018-09-30T02:18:26.873Z,5.50
2018-09-30T02:20:55.065Z,5.00
2018-09-30T02:23:23.283Z,4.30
2018-09-30T02:25:51.474Z,5.53
2018-09-30T02:28:19.670Z,8.40
2018-09-30T02:30:48.174Z,8.17
2018-09-30T02:33:16.371Z,4.53
2018-09-30T02:35:44.562Z,6.60
2018-09-30T02:38:12.776Z,5.77
2018-09-30T02:40:40.953Z,4.53
2018-09-30T02:43:09.157Z,6.77
2018-09-30T02:45:37.345Z,9.03
2018-09-30T02:48:05.525Z,5.33
2018-09-30T02:50:33.772Z,3.67
2018-09-30T02:53:02.851Z,6.20
2018-09-30T02:55:31.053Z,4.33
2018-09-30T02:57:59.250Z,6.80
2018-09-30T03:00:27.420Z,5.40
2018-09-30T03:02:55.599Z,6.03
2018-09-30T03:05:23.919Z,5.50
2018-09-30T03:07:57.395Z,6.90
2018-09-30T03:10:25.593Z,8.93
2018-09-30T03:12:53.772Z,5.33
2018-09-30T03:15:22.068Z,5.23
2018-09-30T03:17:50.266Z,5.23
2018-09-30T03:20:18.457Z,3.60
2018-09-30T03:22:46.675Z,5.37
2018-09-30T03:25:14.897Z,4.90
2018-09-30T03:27:43.076Z,4.40
2018-09-30T03:30:11.313Z,7.27
2018-09-30T03:32:39.489Z,5.33
2018-09-30T03:35:07.673Z,6.47
2018-09-30T03:37:35.931Z,4.20
2018-09-30T03:40:04.118Z,7.20
2018-09-30T03:42:32.310Z,7.43
2018-09-30T03:45:00.502Z,4.07
2018-09-30T03:47:29.341Z,5.03
2018-09-30T03:49:57.529Z,8.83
2018-09-30T03:52:25.706Z,5.13
2018-09-30T03:54:54.129Z,5.13
2018-09-30T03:57:22.324Z,6.70
2018-09-30T03:59:50.721Z,8.80
2018-09-30T04:02:18.918Z,7.00
2018-09-30T04:04:47.109Z,5.20
2018-09-30T04:07:15.543Z,3.93
2018-09-30T04:09:43.728Z,4.87
2018-09-30T04:12:11.936Z,5.93
2018-09-30T04:14:40.137Z,6.53
2018-09-30T04:17:08.448Z,8.50
2018-09-30T04:19:36.523Z,5.67
2018-09-30T04:22:04.771Z,6.17
2018-09-30T04:24:32.957Z,7.80
2018-09-30T04:27:01.223Z,6.40
2018-09-30T04:29:29.437Z,5.00
2018-09-30T04:31:57.668Z,6.90
2018-09-30T04:34:25.869Z,5.50
2018-09-30T04:36:54.078Z,6.67
2018-09-30T04:39:22.283Z,4.63
2018-09-30T04:41:50.459Z,5.80
2018-09-30T04:44:18.805Z,4.50
2018-09-30T04:46:46.998Z,5.73
2018-09-30T04:49:15.181Z,4.70
2018-09-30T04:51:43.379Z,8.10
2018-09-30T04:54:11.602Z,4.77
2018-09-30T04:56:39.795Z,4.23
2018-09-30T04:59:08.011Z,5.57
2018-09-30T05:01:36.188Z,5.07
2018-09-30T05:04:04.373Z,4.30
2018-09-30T05:06:32.641Z,5.17
2018-09-30T05:09:00.845Z,4.90
2018-09-30T05:11:29.025Z,7.13
2018-09-30T05:13:57.215Z,4.90
2018-09-30T05:16:25.438Z,6.00
2018-09-30T05:18:53.612Z,7.37
2018-09-30T05:21:21.809Z,6.83
2018-09-30T05:23:50.025Z,6.50
2018-09-30T05:26:18.224Z,8.83
2018-09-30T05:28:46.433Z,5.50
2018-09-30T05:31:14.698Z,5.40
2018-09-30T05:33:42.850Z,6.90
2018-09-30T05:36:11.073Z,7.57
2018-09-30T05:38:39.268Z,6.07
2018-09-30T05:41:07.473Z,6.73
2018-09-30T05:43:35.718Z,5.67
2018-09-30T05:46:03.941Z,6.80
2018-09-30T05:48:32.133Z,7.00
2018-09-30T05:51:00.337Z,5.97
2018-09-30T05:53:28.513Z,5.30
2018-09-30T05:55:56.701Z,4.93
2018-09-30T05:58:24.921Z,6.10
2018-09-30T06:00:53.117Z,5.30
2018-09-30T06:03:21.306Z,8.90
2018-09-30T06:05:49.502Z,8.97
2018-09-30T06:08:17.698Z,12.97
2018-09-30T06:10:45.905Z,6.97
2018-09-30T06:13:14.082Z,5.50
2018-09-30T06:15:42.336Z,5.90
2018-09-30T06:18:10.502Z,6.47
2018-09-30T06:20:38.937Z,7.27
2018-09-30T06:24:36.585Z,6.43
2018-09-30T06:27:04.785Z,5.20
2018-09-30T06:29:32.970Z,7.93
2018-09-30T06:32:01.450Z,6.17
2018-09-30T06:34:29.587Z,7.70
2018-09-30T06:36:57.785Z,8.03
2018-09-30T06:39:25.975Z,6.70
2018-09-30T06:41:54.186Z,7.53
2018-09-30T06:44:22.362Z,6.63
2018-09-30T06:46:50.618Z,6.50
2018-09-30T06:49:18.820Z,7.73
2018-09-30T06:51:47.043Z,6.77
2018-09-30T06:54:15.364Z,6.93
2018-09-30T06:56:43.549Z,8.90
2018-09-30T06:59:11.757Z,6.20
2018-09-30T07:01:40.091Z,6.73
2018-09-30T07:04:08.264Z,7.60
2018-09-30T07:06:36.475Z,5.57
2018-09-30T07:09:06.593Z,5.93
2018-09-30T07:11:34.846Z,7.50
2018-09-30T07:14:03.049Z,6.40
2018-09-30T07:16:31.257Z,7.23
2018-09-30T07:18:59.439Z,6.50
2018-09-30T07:21:27.635Z,7.53
2018-09-30T07:23:55.830Z,8.43
2018-09-30T07:26:24.057Z,7.43
2018-09-30T07:28:52.263Z,9.83
2018-09-30T07:31:20.445Z,8.40
2018-09-30T07:33:48.689Z,10.13
2018-09-30T07:36:16.859Z,8.50
2018-09-30T07:38:45.170Z,7.57
2018-09-30T07:41:13.357Z,7.73
2018-09-30T07:43:41.529Z,9.47
2018-09-30T07:46:09.765Z,8.90
2018-09-30T07:48:37.977Z,8.37
2018-09-30T07:51:06.166Z,7.97
2018-09-30T07:53:34.389Z,11.67
2018-09-30T07:56:02.584Z,11.43
2018-09-30T07:58:30.785Z,9.87
2018-09-30T08:00:59.359Z,12.93
2018-09-30T08:03:27.541Z,12.30
2018-09-30T08:05:55.734Z,12.97
2018-09-30T08:08:23.937Z,13.80
2018-09-30T08:10:52.153Z,14.90
2018-09-30T08:13:20.359Z,13.70
2018-09-30T08:15:48.555Z,13.80
2018-09-30T08:18:17.013Z,14.60
2018-09-30T08:20:45.245Z,15.87
2018-09-30T08:23:13.535Z,17.60
2018-09-30T08:25:41.713Z,16.43
2018-09-30T08:28:09.917Z,19.70
2018-09-30T08:30:38.139Z,20.50
2018-09-30T08:33:06.325Z,19.77
2018-09-30T08:35:34.522Z,18.27
2018-09-30T08:38:08.157Z,19.93
2018-09-30T08:40:41.625Z,19.60
2018-09-30T08:43:09.879Z,18.80
2018-09-30T08:45:38.132Z,21.03
2018-09-30T08:48:06.293Z,20.23
2018-09-30T08:50:34.605Z,20.70
2018-09-30T08:53:02.797Z,18.90
2018-09-30T08:55:30.993Z,23.03
2018-09-30T08:57:59.165Z,20.90
2018-09-30T09:00:27.411Z,20.50
2018-09-30T09:02:55.672Z,22.80
2018-09-30T09:05:25.710Z,22.60
2018-09-30T09:07:53.924Z,21.77
2018-09-30T09:10:22.317Z,20.03
2018-09-30T09:12:50.504Z,20.40
2018-09-30T09:16:48.169Z,23.40
2018-09-30T09:19:16.645Z,20.63
2018-09-30T09:21:44.856Z,21.10
2018-09-30T09:24:13.073Z,21.47
2018-09-30T09:26:41.318Z,22.47
2018-09-30T09:29:09.558Z,23.33
2018-09-30T09:31:37.862Z,24.20
2018-09-30T09:34:06.062Z,24.77
2018-09-30T09:36:34.985Z,25.33
2018-09-30T09:39:06.437Z,25.80
2018-09-30T09:41:34.650Z,25.37
2018-09-30T09:44:02.843Z,23.77
2018-09-30T09:46:31.097Z,24.27
2018-09-30T09:48:59.485Z,23.47
2018-09-30T09:51:27.673Z,23.87
2018-09-30T09:53:55.870Z,24.50
2018-09-30T09:56:24.057Z,24.03
2018-09-30T09:58:52.446Z,23.23
2018-09-30T10:01:20.633Z,23.90
2018-09-30T10:03:48.840Z,22.80
2018-09-30T10:06:17.038Z,26.00
2018-09-30T10:08:45.276Z,23.97
2018-09-30T10:11:13.837Z,24.40
2018-09-30T10:13:42.045Z,23.07
2018-09-30T10:16:10.224Z,22.93
2018-09-30T10:18:38.433Z,24.17
2018-09-30T10:21:06.329Z,24.67
2018-09-30T10:23:34.541Z,23.20
2018-09-30T10:26:02.865Z,22.67
2018-09-30T10:28:31.115Z,21.03
2018-09-30T10:30:59.341Z,21.50
2018-09-30T10:33:28.012Z,22.00
2018-09-30T10:35:56.216Z,21.60
2018-09-30T10:38:24.440Z,19.50
2018-09-30T10:40:52.625Z,20.67
2018-09-30T10:43:20.821Z,21.13
2018-09-30T10:45:49.001Z,19.40
2018-09-30T10:48:17.328Z,18.43
2018-09-30T10:50:45.460Z,20.50
2018-09-30T10:53:13.817Z,17.03
2018-09-30T10:55:42.018Z,20.00
2018-09-30T10:58:10.214Z,18.20
2018-09-30T11:00:38.633Z,17.07
2018-09-30T11:03:06.860Z,16.83
2018-09-30T11:05:35.102Z,17.60
2018-09-30T11:08:03.459Z,16.17
2018-09-30T11:10:31.662Z,18.40
2018-09-30T11:12:59.877Z,16.90
2018-09-30T11:15:28.245Z,16.40
2018-09-30T11:17:56.541Z,15.63
2018-09-30T11:20:24.741Z,16.70
2018-09-30T11:22:53.242Z,16.40
2018-09-30T11:25:21.412Z,16.17
2018-09-30T11:27:49.621Z,15.33
2018-09-30T11:30:17.949Z,14.80
2018-09-30T11:32:46.473Z,15.40
2018-09-30T11:35:14.711Z,15.73
2018-09-30T11:37:43.230Z,15.60
2018-09-30T11:40:11.410Z,15.63
2018-09-30T11:42:39.715Z,14.77
2018-09-30T11:45:07.901Z,15.40
2018-09-30T11:47:36.091Z,13.97
2018-09-30T11:50:04.510Z,15.53
2018-09-30T11:52:32.759Z,13.93
2018-09-30T11:55:00.941Z,14.20
2018-09-30T11:57:29.141Z,13.90
2018-09-30T11:59:57.333Z,13.70
2018-09-30T12:02:25.623Z,13.40
2018-09-30T12:04:53.737Z,13.80
2018-09-30T12:07:21.936Z,14.10
2018-09-30T12:09:50.153Z,15.73
2018-09-30T12:12:18.387Z,14.50
2018-09-30T12:14:46.561Z,13.17
2018-09-30T12:17:14.777Z,14.20
2018-09-30T12:19:42.977Z,14.50
2018-09-30T12:22:11.185Z,14.80
2018-09-30T12:24:39.829Z,14.23
2018-09-30T12:27:08.218Z,15.77
2018-09-30T12:29:36.425Z,14.47
2018-09-30T12:32:04.626Z,13.17
2018-09-30T12:34:32.810Z,13.30
2018-09-30T12:37:01.033Z,15.23
2018-09-30T12:39:29.265Z,14.13
2018-09-30T12:41:57.506Z,12.67
2018-09-30T12:44:25.793Z,11.70
2018-09-30T12:46:54.333Z,15.53
2018-09-30T12:49:22.720Z,14.27
2018-09-30T12:51:50.912Z,13.43
2018-09-30T12:54:19.179Z,14.40
2018-09-30T12:56:47.667Z,13.83
2018-09-30T12:59:15.926Z,13.40
2018-09-30T13:01:44.173Z,12.90
2018-09-30T13:04:12.387Z,13.70
2018-09-30T13:06:40.732Z,13.30
2018-09-30T13:09:09.755Z,12.73
2018-09-30T13:11:38.026Z,12.83
2018-09-30T13:14:06.710Z,13.93
2018-09-30T13:16:35.004Z,13.47
2018-09-30T13:19:03.216Z,13.67
2018-09-30T13:21:31.438Z,11.90
2018-09-30T13:23:59.714Z,12.60
2018-09-30T13:26:27.944Z,13.27
2018-09-30T13:28:56.152Z,12.70
2018-09-30T13:31:24.620Z,12.97
2018-09-30T13:33:52.925Z,12.17
2018-09-30T13:36:21.117Z,11.43
2018-09-30T13:38:49.337Z,13.53
2018-09-30T13:41:17.934Z,12.53
2018-09-30T13:43:46.249Z,13.43
2018-09-30T13:46:14.473Z,14.13
2018-09-30T13:48:42.670Z,13.57
2018-09-30T13:51:10.927Z,12.10
2018-09-30T13:53:39.170Z,14.47
2018-09-30T13:56:07.432Z,12.77
2018-09-30T13:58:35.637Z,12.63
2018-09-30T14:01:03.978Z,13.47
2018-09-30T14:03:32.156Z,13.33
2018-09-30T14:06:00.429Z,15.37
2018-09-30T14:08:28.808Z,15.00
2018-09-30T14:10:57.187Z,12.93
2018-09-30T14:13:25.372Z,12.83
2018-09-30T14:15:53.569Z,11.90
2018-09-30T14:18:21.771Z,12.37
2018-09-30T14:20:49.973Z,12.20
2018-09-30T14:23:18.353Z,12.47
2018-09-30T14:25:46.565Z,13.53
2018-09-30T14:28:14.760Z,12.07
2018-09-30T14:30:42.989Z,12.83
2018-09-30T14:33:11.255Z,11.77
2018-09-30T14:35:39.803Z,13.53
2018-09-30T14:38:08.017Z,12.40
2018-09-30T14:40:36.205Z,13.93
2018-09-30T14:43:04.430Z,15.10
2018-09-30T14:45:32.681Z,15.40
2018-09-30T14:48:00.944Z,14.53
2018-09-30T14:50:29.109Z,15.83
2018-09-30T14:52:57.618Z,14.03
2018-09-30T14:55:25.813Z,16.10
2018-09-30T14:57:54.257Z,14.90
2018-09-30T15:00:22.456Z,14.40
2018-09-30T15:02:50.685Z,15.00
2018-09-30T15:05:18.927Z,16.00
2018-09-30T15:07:47.114Z,16.10
2018-09-30T15:10:15.333Z,15.10
2018-09-30T15:12:43.584Z,17.30
2018-09-30T15:15:11.796Z,18.10
2018-09-30T15:17:39.991Z,18.00
2018-09-30T15:20:08.217Z,17.03
2018-09-30T15:22:36.525Z,15.03
2018-09-30T15:25:04.745Z,16.00
2018-09-30T15:27:32.938Z,16.40
2018-09-30T15:30:01.193Z,16.73
2018-09-30T15:32:29.401Z,17.63
2018-09-30T15:34:57.626Z,16.43
2018-09-30T15:37:26.125Z,15.67
2018-09-30T15:39:54.325Z,16.13
2018-09-30T15:42:22.605Z,14.40
2018-09-30T15:44:50.968Z,17.40
2018-09-30T15:47:19.352Z,13.70
2018-09-30T15:49:47.597Z,13.83
2018-09-30T15:52:15.992Z,15.93
2018-09-30T15:54:44.207Z,14.20
2018-09-30T15:57:12.401Z,14.97
2018-09-30T15:59:40.597Z,14.33
2018-09-30T16:02:09.011Z,16.57
2018-09-30T16:04:37.424Z,15.13
2018-09-30T16:07:05.894Z,13.50
2018-09-30T16:09:34.334Z,16.37
2018-09-30T16:12:02.688Z,14.97
2018-09-30T16:14:30.906Z,14.90
2018-09-30T16:16:59.161Z,14.43
2018-09-30T16:19:27.825Z,14.47
2018-09-30T16:21:56.347Z,16.33
2018-09-30T16:24:24.522Z,15.20
2018-09-30T16:26:53.105Z,13.97
2018-09-30T16:29:21.285Z,21.67
2018-09-30T16:31:49.517Z,15.43
2018-09-30T16:34:17.729Z,14.40
2018-09-30T16:36:45.918Z,14.40
2018-09-30T16:39:14.109Z,15.70
2018-09-30T16:41:42.321Z,14.23
2018-09-30T16:44:10.531Z,14.87
2018-09-30T16:46:38.847Z,14.97
2018-09-30T16:49:07.296Z,15.20
2018-09-30T16:51:35.545Z,16.23
2018-09-30T16:54:03.771Z,16.50
2018-09-30T16:56:32.218Z,17.47
2018-09-30T16:59:00.417Z,17.33
2018-09-30T17:01:28.655Z,17.30
2018-09-30T17:03:56.825Z,16.67
2018-09-30T17:06:25.014Z,15.97
2018-09-30T17:08:53.252Z,18.23
2018-09-30T17:11:21.470Z,17.30
2018-09-30T17:13:49.668Z,17.97
2018-09-30T17:16:17.869Z,20.30
2018-09-30T17:18:46.085Z,18.70
2018-09-30T17:21:14.309Z,18.27
2018-09-30T17:23:42.547Z,19.47
2018-09-30T17:26:10.734Z,21.30
2018-09-30T17:28:38.951Z,19.60
2018-09-30T17:31:07.481Z,19.63
2018-09-30T17:33:35.663Z,20.43
2018-09-30T17:36:03.858Z,20.87
2018-09-30T17:38:32.056Z,21.07
2018-09-30T17:41:00.255Z,20.87
2018-09-30T17:43:28.464Z,20.13
2018-09-30T17:45:56.673Z,23.37
2018-09-30T17:48:24.997Z,22.37
2018-09-30T17:50:53.229Z,23.70
2018-09-30T17:53:21.465Z,22.33
2018-09-30T17:55:49.987Z,21.40
2018-09-30T17:58:18.201Z,21.73
2018-09-30T18:00:46.379Z,22.40
2018-09-30T18:03:14.570Z,20.87
2018-09-30T18:05:42.765Z,23.27
2018-09-30T18:08:11.106Z,22.53
2018-09-30T18:10:39.309Z,26.53
2018-09-30T18:13:07.493Z,22.50
2018-09-30T18:15:35.936Z,23.60
2018-09-30T18:18:04.125Z,23.23
2018-09-30T18:20:32.329Z,25.53
2018-09-30T18:23:00.521Z,25.07
2018-09-30T18:25:28.722Z,25.17
2018-09-30T18:27:56.971Z,23.80
2018-09-30T18:30:25.172Z,25.77
2018-09-30T18:32:53.373Z,25.53
2018-09-30T18:35:21.598Z,26.80
2018-09-30T18:37:49.853Z,26.83
2018-09-30T18:40:18.046Z,24.43
2018-09-30T18:42:46.226Z,26.53
2018-09-30T18:45:14.428Z,29.00
2018-09-30T18:47:42.636Z,26.67
2018-09-30T18:50:10.866Z,27.40
2018-09-30T18:52:39.081Z,28.03
2018-09-30T18:55:07.334Z,28.23
2018-09-30T18:57:35.514Z,29.50
2018-09-30T19:00:04.037Z,28.17
2018-09-30T19:02:32.245Z,30.70
2018-09-30T19:05:00.452Z,29.93
2018-09-30T19:07:28.682Z,31.10
2018-09-30T19:09:56.890Z,26.73
2018-09-30T19:12:25.090Z,28.70
2018-09-30T19:14:53.286Z,30.37
2018-09-30T19:17:21.472Z,28.63
2018-09-30T19:19:49.817Z,27.93
2018-09-30T19:22:18.018Z,29.87
2018-09-30T19:24:46.224Z,31.00
2018-09-30T19:27:14.418Z,31.53
2018-09-30T19:29:42.661Z,30.93
2018-09-30T19:32:10.945Z,29.47
2018-09-30T19:34:39.147Z,29.73
2018-09-30T19:37:07.346Z,30.63
2018-09-30T19:39:35.545Z,32.67
2018-09-30T19:42:03.775Z,29.83
2018-09-30T19:44:32.061Z,31.27
2018-09-30T19:47:00.250Z,31.97
2018-09-30T19:49:28.455Z,34.20
2018-09-30T19:51:56.654Z,31.10
2018-09-30T19:54:24.890Z,32.17
2018-09-30T19:56:53.174Z,33.13
2018-09-30T19:59:21.414Z,32.77
2018-09-30T20:01:49.617Z,29.90
2018-09-30T20:04:17.806Z,32.07
2018-09-30T20:06:46.417Z,31.23
2018-09-30T20:09:14.772Z,30.63
2018-09-30T20:11:42.853Z,33.40
2018-09-30T20:14:11.050Z,34.33
2018-09-30T20:16:39.438Z,29.73
2018-09-30T20:19:07.593Z,29.97
2018-09-30T20:21:35.803Z,32.00
2018-09-30T20:24:03.993Z,33.00
2018-09-30T20:26:32.213Z,29.53
2018-09-30T20:29:00.430Z,31.23
2018-09-30T20:31:28.638Z,30.60
2018-09-30T20:33:56.877Z,31.40
2018-09-30T20:36:25.089Z,30.53
2018-09-30T20:38:53.297Z,30.03
2018-09-30T20:41:21.485Z,31.60
2018-09-30T20:43:50.113Z,31.70
2018-09-30T20:46:19.319Z,30.17
2018-09-30T20:48:47.573Z,30.20
2018-09-30T20:51:15.858Z,29.77
2018-09-30T20:53:44.045Z,30.50
2018-09-30T20:56:12.264Z,29.50
2018-09-30T20:58:40.644Z,29.97
2018-09-30T21:01:09.173Z,28.17
2018-09-30T21:03:37.667Z,28.80
2018-09-30T21:06:15.614Z,30.40
2018-09-30T21:08:44.889Z,31.60
2018-09-30T21:11:13.115Z,30.87
2018-09-30T21:13:41.565Z,30.83
2018-09-30T21:16:09.758Z,30.90
2018-09-30T21:18:37.944Z,28.73
2018-09-30T21:21:06.153Z,31.20
2018-09-30T21:23:34.571Z,27.20
2018-09-30T21:26:02.745Z,28.97
2018-09-30T21:28:30.958Z,28.23
2018-09-30T21:30:59.169Z,28.07
2018-09-30T21:33:27.396Z,27.80
2018-09-30T21:35:55.584Z,28.97
2018-09-30T21:38:23.801Z,27.13
2018-09-30T21:40:51.997Z,26.27
2018-09-30T21:43:20.237Z,28.97
2018-09-30T21:45:48.417Z,29.27
2018-09-30T21:48:17.926Z,25.93
2018-09-30T21:50:46.108Z,28.33
2018-09-30T21:53:15.469Z,28.47
2018-09-30T21:55:43.810Z,28.00
2018-09-30T21:58:12.031Z,28.40
2018-09-30T22:00:43.484Z,27.17
2018-09-30T22:03:12.785Z,27.40
2018-09-30T22:05:41.009Z,26.67
2018-09-30T22:08:10.203Z,27.07
2018-09-30T22:10:39.963Z,26.53
2018-09-30T22:13:08.449Z,27.63
2018-09-30T22:15:36.696Z,27.90
2018-09-30T22:18:05.181Z,26.43
2018-09-30T22:20:33.373Z,27.03
2018-09-30T22:23:01.574Z,25.60
2018-09-30T22:26:59.283Z,28.03
2018-09-30T22:29:27.437Z,27.37
2018-09-30T22:31:55.646Z,26.90
2018-09-30T22:34:24.204Z,28.93
2018-09-30T22:36:52.483Z,28.70
2018-09-30T22:39:20.889Z,29.30
2018-09-30T22:41:49.125Z,28.77
2018-09-30T22:44:17.326Z,31.27
2018-09-30T22:46:45.563Z,28.07
2018-09-30T22:49:13.762Z,29.67
2018-09-30T22:51:41.951Z,30.97
2018-09-30T22:54:10.166Z,29.43
2018-09-30T22:56:38.348Z,30.23
2018-09-30T22:59:06.565Z,28.57
2018-09-30T23:01:35.036Z,28.47
2018-09-30T23:04:03.248Z,31.13
2018-09-30T23:06:31.438Z,29.60
2018-09-30T23:08:59.640Z,31.23
2018-09-30T23:11:27.842Z,29.33
2018-09-30T23:13:56.044Z,30.20
2018-09-30T23:16:24.240Z,31.53
2018-09-30T23:18:52.463Z,31.83
2018-09-30T23:21:20.638Z,31.30
2018-09-30T23:23:48.838Z,33.50
2018-09-30T23:26:17.058Z,34.37
2018-09-30T23:28:45.285Z,32.80
2018-09-30T23:31:13.468Z,31.13
2018-09-30T23:33:41.666Z,30.40
2018-09-30T23:36:09.891Z,30.00
2018-09-30T23:38:38.077Z,28.83
2018-09-30T23:41:06.805Z,31.80
2018-09-30T23:43:35.015Z,30.07
2018-09-30T23:46:03.466Z,28.50
2018-09-30T23:48:31.679Z,30.13
2018-09-30T23:50:59.905Z,28.73
2018-09-30T23:53:28.080Z,28.90
2018-09-30T23:55:56.273Z,27.80
2018-09-30T23:58:24.456Z,28.07
